• Join FlightAware (Why Join?)
  • Login
  • US Flag 
05:25PM EST


 

Airport Tracker/Info


-or-


 

Live Flight TrackerFlight Track Log ✈ N534QS ✈ 16-May-2013 ✈ KHPN - KTTN

Flight Track Log - Related Links

Times and Time Zones

All times are in EDT time to prevent confusion due to time zone crossing. See the N534QS flight status page for this flight to view local times or setup timezone preferences in your user account.

Time Position Orientation Groundspeed Altitude Reporting Facility
EDT Latitude Longitude Course Direction KTS MPH feet Rate Location/Type
09:09PM 41.1000 -73.8000 295° West 230 265 5,700  Level New York TRACON
09:10PM 41.1000 -73.8833 270° West 253 291 8,000 1,200 Climbing New York TRACON
09:11PM 41.1000 -73.9833 270° West 253 291 8,000 660 Level New York TRACON
09:12PM 41.0833 -74.0833 258° West 254 292 9,500 900 Climbing New York TRACON
09:13PM 41.0833 -74.1833 270° West 287 330 10,000 240 Climbing New York TRACON
09:14PM 41.0833 -74.2833 270° West 337 388 10,000  Level New York TRACON
09:15PM 41.0667 -74.4167 261° West 338 389 10,000  Level New York TRACON
09:16PM 41.0500 -74.5333 259° West 345 397 10,000 -360 Level New York TRACON
09:17PM 40.9667 -74.5833 204° Southwest 320 368 9,300 -1,200 Descending New York TRACON
09:18PM 40.8833 -74.6167 197° South 271 312 7,600 -1,200 Descending New York TRACON
09:19PM 40.8167 -74.6500 201° Southwest 274 315 6,900 -900 Descending New York TRACON
09:20PM 40.7333 -74.6833 197° South 271 312 5,900 -1,020 Descending New York TRACON
09:21PM 40.6667 -74.7000 191° South 274 315 4,900 -960 Descending New York TRACON
09:22PM 40.6000 -74.7333 201° Southwest 276 318 4,000 -300 Descending New York TRACON
09:25PM 40.4167 -74.7833 192° South 248 285 3,900 -240 Descending Philadelphia TRACON
09:26PM 40.3667 -74.7333 143° Southeast 224 258 3,300 -1,020 Descending Philadelphia TRACON
09:27PM 40.3167 -74.7500 194° South 142 163 1,900 -1,200 Descending Philadelphia TRACON
09:28PM 40.3000 -74.7833 237° Southwest 105 121 800 -1,020 Descending Philadelphia TRACON
09:30PM 40.2767 -74.8135 75° East  Level Estimated
09:37PM 40.2767 -74.8135 75° East  Level Estimated